sensor_id;sensor_type;location;lat;lon;timestamp;temperature;humidity
84983;DHT22;75295;45.426;9.696;2024-01-15T00:00:55;5.20;81.10
84983;DHT22;75295;45.426;9.696;2024-01-15T00:03:22;5.30;81.00
84983;DHT22;75295;45.426;9.696;2024-01-15T00:05:48;5.20;80.80
84983;DHT22;75295;45.426;9.696;2024-01-15T00:08:15;5.30;80.70
84983;DHT22;75295;45.426;9.696;2024-01-15T00:10:42;5.30;80.30
84983;DHT22;75295;45.426;9.696;2024-01-15T00:13:09;5.20;80.20
84983;DHT22;75295;45.426;9.696;2024-01-15T00:15:35;5.20;80.50
84983;DHT22;75295;45.426;9.696;2024-01-15T00:18:02;5.20;80.50
84983;DHT22;75295;45.426;9.696;2024-01-15T00:20:29;5.30;80.60
84983;DHT22;75295;45.426;9.696;2024-01-15T00:22:56;5.30;80.20
84983;DHT22;75295;45.426;9.696;2024-01-15T00:25:23;5.30;80.10
84983;DHT22;75295;45.426;9.696;2024-01-15T00:27:50;5.20;80.30
84983;DHT22;75295;45.426;9.696;2024-01-15T00:30:16;5.20;80.20
84983;DHT22;75295;45.426;9.696;2024-01-15T00:32:43;5.20;80.40
84983;DHT22;75295;45.426;9.696;2024-01-15T00:35:10;5.20;80.30
84983;DHT22;75295;45.426;9.696;2024-01-15T00:37:37;5.10;80.50
84983;DHT22;75295;45.426;9.696;2024-01-15T00:40:05;5.10;81.00
84983;DHT22;75295;45.426;9.696;2024-01-15T00:42:34;5.00;81.10
84983;DHT22;75295;45.426;9.696;2024-01-15T00:45:01;5.00;81.60
84983;DHT22;75295;45.426;9.696;2024-01-15T00:47:27;5.10;81.40
84983;DHT22;75295;45.426;9.696;2024-01-15T00:49:54;5.10;81.10
84983;DHT22;75295;45.426;9.696;2024-01-15T00:52:21;5.10;81.00
84983;DHT22;75295;45.426;9.696;2024-01-15T00:54:47;5.20;80.90
84983;DHT22;75295;45.426;9.696;2024-01-15T00:57:14;5.20;80.80
84983;DHT22;75295;45.426;9.696;2024-01-15T00:59:41;5.20;80.80
84983;DHT22;75295;45.426;9.696;2024-01-15T01:02:08;5.20;80.70
84983;DHT22;75295;45.426;9.696;2024-01-15T01:04:34;5.20;80.70
84983;DHT22;75295;45.426;9.696;2024-01-15T01:07:01;5.00;80.70
84983;DHT22;75295;45.426;9.696;2024-01-15T01:09:28;5.00;81.20
84983;DHT22;75295;45.426;9.696;2024-01-15T01:11:56;4.90;81.50
84983;DHT22;75295;45.426;9.696;2024-01-15T01:14:23;4.90;82.10
84983;DHT22;75295;45.426;9.696;2024-01-15T01:16:50;5.00;82.10
84983;DHT22;75295;45.426;9.696;2024-01-15T01:19:16;5.00;81.70
84983;DHT22;75295;45.426;9.696;2024-01-15T01:21:43;5.20;81.40
84983;DHT22;75295;45.426;9.696;2024-01-15T01:24:10;5.20;80.90
84983;DHT22;75295;45.426;9.696;2024-01-15T01:26:37;5.20;80.90
84983;DHT22;75295;45.426;9.696;2024-01-15T01:29:03;5.20;81.00
84983;DHT22;75295;45.426;9.696;2024-01-15T01:31:30;5.20;80.90
84983;DHT22;75295;45.426;9.696;2024-01-15T01:33:57;5.10;81.20
84983;DHT22;75295;45.426;9.696;2024-01-15T01:36:23;5.10;81.50
84983;DHT22;75295;45.426;9.696;2024-01-15T01:38:50;5.20;81.50
84983;DHT22;75295;45.426;9.696;2024-01-15T01:41:17;5.30;81.30
84983;DHT22;75295;45.426;9.696;2024-01-15T01:43:44;5.40;80.90
84983;DHT22;75295;45.426;9.696;2024-01-15T01:46:11;5.50;80.90
84983;DHT22;75295;45.426;9.696;2024-01-15T01:48:38;5.50;80.70
84983;DHT22;75295;45.426;9.696;2024-01-15T01:51:05;5.50;80.50
84983;DHT22;75295;45.426;9.696;2024-01-15T01:53:33;5.50;80.70
84983;DHT22;75295;45.426;9.696;2024-01-15T01:56:02;5.50;80.60
84983;DHT22;75295;45.426;9.696;2024-01-15T01:58:32;5.50;80.20
84983;DHT22;75295;45.426;9.696;2024-01-15T02:00:59;5.40;80.20
84983;DHT22;75295;45.426;9.696;2024-01-15T02:03:30;5.40;80.70
84983;DHT22;75295;45.426;9.696;2024-01-15T02:05:59;5.40;80.60
84983;DHT22;75295;45.426;9.696;2024-01-15T02:08:27;5.40;80.40
84983;DHT22;75295;45.426;9.696;2024-01-15T02:10:53;5.40;80.50
84983;DHT22;75295;45.426;9.696;2024-01-15T02:13:20;5.30;80.60
84983;DHT22;75295;45.426;9.696;2024-01-15T02:15:47;5.30;80.90
84983;DHT22;75295;45.426;9.696;2024-01-15T02:18:14;5.40;81.00
84983;DHT22;75295;45.426;9.696;2024-01-15T02:20:40;5.40;80.60
84983;DHT22;75295;45.426;9.696;2024-01-15T02:23:12;5.40;80.80
84983;DHT22;75295;45.426;9.696;2024-01-15T02:25:41;5.30;81.10
84983;DHT22;75295;45.426;9.696;2024-01-15T02:28:14;5.40;81.10
84983;DHT22;75295;45.426;9.696;2024-01-15T02:30:43;5.40;81.10
84983;DHT22;75295;45.426;9.696;2024-01-15T02:33:11;5.40;80.90
84983;DHT22;75295;45.426;9.696;2024-01-15T02:35:38;5.20;81.10
84983;DHT22;75295;45.426;9.696;2024-01-15T02:38:06;5.00;82.10
84983;DHT22;75295;45.426;9.696;2024-01-15T02:40:33;4.70;83.40
84983;DHT22;75295;45.426;9.696;2024-01-15T02:43:00;4.50;84.50
84983;DHT22;75295;45.426;9.696;2024-01-15T02:45:28;4.50;84.90
84983;DHT22;75295;45.426;9.696;2024-01-15T02:47:54;4.60;84.80
84983;DHT22;75295;45.426;9.696;2024-01-15T02:50:21;4.80;84.30
84983;DHT22;75295;45.426;9.696;2024-01-15T02:52:48;5.00;83.60
84983;DHT22;75295;45.426;9.696;2024-01-15T02:55:15;5.10;83.00
84983;DHT22;75295;45.426;9.696;2024-01-15T02:57:42;5.20;82.90
84983;DHT22;75295;45.426;9.696;2024-01-15T03:00:09;5.20;82.50
84983;DHT22;75295;45.426;9.696;2024-01-15T03:02:37;5.20;82.20
84983;DHT22;75295;45.426;9.696;2024-01-15T03:05:10;5.30;82.30
84983;DHT22;75295;45.426;9.696;2024-01-15T03:07:37;5.40;82.00
84983;DHT22;75295;45.426;9.696;2024-01-15T03:10:05;5.30;81.90
84983;DHT22;75295;45.426;9.696;2024-01-15T03:12:32;5.40;82.30
84983;DHT22;75295;45.426;9.696;2024-01-15T03:14:59;5.40;82.20
84983;DHT22;75295;45.426;9.696;2024-01-15T03:17:26;5.50;82.10
84983;DHT22;75295;45.426;9.696;2024-01-15T03:19:52;5.60;81.90
84983;DHT22;75295;45.426;9.696;2024-01-15T03:22:19;5.60;81.20
84983;DHT22;75295;45.426;9.696;2024-01-15T03:24:46;5.60;80.90
84983;DHT22;75295;45.426;9.696;2024-01-15T03:27:12;5.50;81.00
84983;DHT22;75295;45.426;9.696;2024-01-15T03:29:40;5.50;81.20
84983;DHT22;75295;45.426;9.696;2024-01-15T03:32:07;5.40;81.30
84983;DHT22;75295;45.426;9.696;2024-01-15T03:34:34;5.40;81.30
84983;DHT22;75295;45.426;9.696;2024-01-15T03:37:00;5.40;81.20
84983;DHT22;75295;45.426;9.696;2024-01-15T03:39:27;5.30;81.70
84983;DHT22;75295;45.426;9.696;2024-01-15T03:41:55;5.20;82.20
84983;DHT22;75295;45.426;9.696;2024-01-15T03:44:21;5.20;82.50
84983;DHT22;75295;45.426;9.696;2024-01-15T03:46:48;5.30;82.50
84983;DHT22;75295;45.426;9.696;2024-01-15T03:49:15;5.30;82.10
84983;DHT22;75295;45.426;9.696;2024-01-15T03:51:41;5.30;81.80
84983;DHT22;75295;45.426;9.696;2024-01-15T03:54:08;5.40;81.90
84983;DHT22;75295;45.426;9.696;2024-01-15T03:56:35;5.40;81.80
84983;DHT22;75295;45.426;9.696;2024-01-15T03:59:01;5.40;81.70
84983;DHT22;75295;45.426;9.696;2024-01-15T04:01:29;5.40;82.40
84983;DHT22;75295;45.426;9.696;2024-01-15T04:03:56;5.40;81.80
84983;DHT22;75295;45.426;9.696;2024-01-15T04:06:22;5.00;82.50
84983;DHT22;75295;45.426;9.696;2024-01-15T04:08:50;5.00;82.80
84983;DHT22;75295;45.426;9.696;2024-01-15T04:11:17;5.00;83.10
84983;DHT22;75295;45.426;9.696;2024-01-15T04:13:44;4.90;83.50
84983;DHT22;75295;45.426;9.696;2024-01-15T04:16:10;5.00;83.40
84983;DHT22;75295;45.426;9.696;2024-01-15T04:18:37;5.00;83.40
84983;DHT22;75295;45.426;9.696;2024-01-15T04:21:05;5.20;83.30
84983;DHT22;75295;45.426;9.696;2024-01-15T04:23:33;5.30;82.70
84983;DHT22;75295;45.426;9.696;2024-01-15T04:26:00;5.30;82.40
84983;DHT22;75295;45.426;9.696;2024-01-15T04:28:27;5.30;82.30
84983;DHT22;75295;45.426;9.696;2024-01-15T04:30:54;5.40;82.30
84983;DHT22;75295;45.426;9.696;2024-01-15T04:33:20;5.40;82.10
84983;DHT22;75295;45.426;9.696;2024-01-15T04:35:47;5.50;81.90
84983;DHT22;75295;45.426;9.696;2024-01-15T04:38:14;5.50;81.50
84983;DHT22;75295;45.426;9.696;2024-01-15T04:40:42;5.50;81.50
84983;DHT22;75295;45.426;9.696;2024-01-15T04:43:08;5.40;81.50
84983;DHT22;75295;45.426;9.696;2024-01-15T04:45:36;5.40;81.80
84983;DHT22;75295;45.426;9.696;2024-01-15T04:48:04;5.40;82.00
84983;DHT22;75295;45.426;9.696;2024-01-15T04:50:31;5.40;81.90
84983;DHT22;75295;45.426;9.696;2024-01-15T04:52:58;5.40;81.80
84983;DHT22;75295;45.426;9.696;2024-01-15T04:55:25;5.50;81.60
84983;DHT22;75295;45.426;9.696;2024-01-15T04:57:51;5.50;81.50
84983;DHT22;75295;45.426;9.696;2024-01-15T05:00:18;5.50;81.20
84983;DHT22;75295;45.426;9.696;2024-01-15T05:02:45;5.50;81.10
84983;DHT22;75295;45.426;9.696;2024-01-15T05:05:12;5.40;81.30
84983;DHT22;75295;45.426;9.696;2024-01-15T05:07:39;5.40;81.70
84983;DHT22;75295;45.426;9.696;2024-01-15T05:10:06;5.40;81.80
84983;DHT22;75295;45.426;9.696;2024-01-15T05:12:34;5.30;81.70
84983;DHT22;75295;45.426;9.696;2024-01-15T05:15:01;5.40;81.80
84983;DHT22;75295;45.426;9.696;2024-01-15T05:17:29;5.40;81.70
84983;DHT22;75295;45.426;9.696;2024-01-15T05:19:56;5.40;81.40
84983;DHT22;75295;45.426;9.696;2024-01-15T05:22:22;5.40;81.40
84983;DHT22;75295;45.426;9.696;2024-01-15T05:24:51;5.40;81.40
84983;DHT22;75295;45.426;9.696;2024-01-15T05:27:18;5.30;81.60
84983;DHT22;75295;45.426;9.696;2024-01-15T05:29:44;5.20;81.90
84983;DHT22;75295;45.426;9.696;2024-01-15T05:32:11;5.00;82.40
84983;DHT22;75295;45.426;9.696;2024-01-15T05:34:38;4.90;82.70
84983;DHT22;75295;45.426;9.696;2024-01-15T05:37:05;4.90;82.70
84983;DHT22;75295;45.426;9.696;2024-01-15T05:39:31;4.90;82.80
84983;DHT22;75295;45.426;9.696;2024-01-15T05:41:58;4.60;83.50
84983;DHT22;75295;45.426;9.696;2024-01-15T05:44:26;4.60;83.80
84983;DHT22;75295;45.426;9.696;2024-01-15T05:46:54;4.50;84.00
84983;DHT22;75295;45.426;9.696;2024-01-15T05:49:21;4.50;84.00
84983;DHT22;75295;45.426;9.696;2024-01-15T05:51:48;4.50;84.20
84983;DHT22;75295;45.426;9.696;2024-01-15T05:54:14;4.50;84.10
84983;DHT22;75295;45.426;9.696;2024-01-15T05:56:41;4.60;84.10
84983;DHT22;75295;45.426;9.696;2024-01-15T05:59:08;4.70;84.10
84983;DHT22;75295;45.426;9.696;2024-01-15T06:01:35;4.70;83.90
84983;DHT22;75295;45.426;9.696;2024-01-15T06:04:02;4.90;83.80
84983;DHT22;75295;45.426;9.696;2024-01-15T06:06:29;4.90;83.50
84983;DHT22;75295;45.426;9.696;2024-01-15T06:08:56;5.00;83.20
84983;DHT22;75295;45.426;9.696;2024-01-15T06:11:30;5.00;83.10
84983;DHT22;75295;45.426;9.696;2024-01-15T06:13:57;4.90;83.00
84983;DHT22;75295;45.426;9.696;2024-01-15T06:16:24;5.00;83.00
84983;DHT22;75295;45.426;9.696;2024-01-15T06:18:51;5.00;82.80
84983;DHT22;75295;45.426;9.696;2024-01-15T06:21:18;5.00;82.50
84983;DHT22;75295;45.426;9.696;2024-01-15T06:23:45;5.00;82.50
84983;DHT22;75295;45.426;9.696;2024-01-15T06:26:12;4.90;82.50
84983;DHT22;75295;45.426;9.696;2024-01-15T06:28:39;4.90;82.60
84983;DHT22;75295;45.426;9.696;2024-01-15T06:31:07;4.80;82.90
84983;DHT22;75295;45.426;9.696;2024-01-15T06:33:34;4.80;82.80
84983;DHT22;75295;45.426;9.696;2024-01-15T06:36:01;4.70;83.00
84983;DHT22;75295;45.426;9.696;2024-01-15T06:38:27;4.60;83.30
84983;DHT22;75295;45.426;9.696;2024-01-15T06:40:54;4.60;83.30
84983;DHT22;75295;45.426;9.696;2024-01-15T06:43:20;4.70;83.30
84983;DHT22;75295;45.426;9.696;2024-01-15T06:45:47;4.70;83.10
84983;DHT22;75295;45.426;9.696;2024-01-15T06:48:14;4.70;83.00
84983;DHT22;75295;45.426;9.696;2024-01-15T06:50:45;4.80;82.90
84983;DHT22;75295;45.426;9.696;2024-01-15T06:53:12;4.80;82.60
84983;DHT22;75295;45.426;9.696;2024-01-15T06:55:39;4.80;82.50
84983;DHT22;75295;45.426;9.696;2024-01-15T06:58:06;4.80;82.30
84983;DHT22;75295;45.426;9.696;2024-01-15T07:00:33;4.80;82.30
84983;DHT22;75295;45.426;9.696;2024-01-15T07:02:59;4.70;82.30
84983;DHT22;75295;45.426;9.696;2024-01-15T07:05:26;4.60;82.60
84983;DHT22;75295;45.426;9.696;2024-01-15T07:07:54;4.60;82.70
84983;DHT22;75295;45.426;9.696;2024-01-15T07:10:21;4.60;82.50
84983;DHT22;75295;45.426;9.696;2024-01-15T07:12:48;4.50;82.40
84983;DHT22;75295;45.426;9.696;2024-01-15T07:15:15;4.40;82.60
84983;DHT22;75295;45.426;9.696;2024-01-15T07:17:42;4.40;82.80
84983;DHT22;75295;45.426;9.696;2024-01-15T07:20:09;4.30;83.10
84983;DHT22;75295;45.426;9.696;2024-01-15T07:22:36;4.30;83.30
84983;DHT22;75295;45.426;9.696;2024-01-15T07:25:04;4.40;83.00
84983;DHT22;75295;45.426;9.696;2024-01-15T07:27:31;4.40;82.90
84983;DHT22;75295;45.426;9.696;2024-01-15T07:29:58;4.50;82.60
84983;DHT22;75295;45.426;9.696;2024-01-15T07:32:25;4.50;82.20
84983;DHT22;75295;45.426;9.696;2024-01-15T07:34:52;4.50;82.30
84983;DHT22;75295;45.426;9.696;2024-01-15T07:37:19;4.40;82.30
84983;DHT22;75295;45.426;9.696;2024-01-15T07:39:46;4.30;82.50
84983;DHT22;75295;45.426;9.696;2024-01-15T07:42:12;4.30;82.80
84983;DHT22;75295;45.426;9.696;2024-01-15T07:44:39;4.20;83.00
84983;DHT22;75295;45.426;9.696;2024-01-15T07:47:07;4.00;83.40
84983;DHT22;75295;45.426;9.696;2024-01-15T07:49:35;3.90;83.80
84983;DHT22;75295;45.426;9.696;2024-01-15T07:52:02;3.80;83.90
84983;DHT22;75295;45.426;9.696;2024-01-15T07:54:31;3.90;83.90
84983;DHT22;75295;45.426;9.696;2024-01-15T07:57:02;3.80;84.20
84983;DHT22;75295;45.426;9.696;2024-01-15T07:59:32;3.70;84.90
84983;DHT22;75295;45.426;9.696;2024-01-15T08:01:59;3.90;84.80
84983;DHT22;75295;45.426;9.696;2024-01-15T08:04:26;3.70;85.90
84983;DHT22;75295;45.426;9.696;2024-01-15T08:06:52;3.40;87.10
84983;DHT22;75295;45.426;9.696;2024-01-15T08:09:19;3.50;87.40
84983;DHT22;75295;45.426;9.696;2024-01-15T08:11:47;3.70;86.80
84983;DHT22;75295;45.426;9.696;2024-01-15T08:14:15;3.40;87.60
84983;DHT22;75295;45.426;9.696;2024-01-15T08:16:42;3.20;88.50
84983;DHT22;75295;45.426;9.696;2024-01-15T08:19:10;3.40;88.50
84983;DHT22;75295;45.426;9.696;2024-01-15T08:21:36;3.40;88.20
84983;DHT22;75295;45.426;9.696;2024-01-15T08:24:04;3.70;87.70
84983;DHT22;75295;45.426;9.696;2024-01-15T08:26:32;3.80;86.40
84983;DHT22;75295;45.426;9.696;2024-01-15T08:28:58;3.40;87.90
84983;DHT22;75295;45.426;9.696;2024-01-15T08:31:25;3.50;88.40
84983;DHT22;75295;45.426;9.696;2024-01-15T08:33:52;3.40;88.20
84983;DHT22;75295;45.426;9.696;2024-01-15T08:36:21;3.60;88.00
84983;DHT22;75295;45.426;9.696;2024-01-15T08:38:48;3.80;87.70
84983;DHT22;75295;45.426;9.696;2024-01-15T08:41:14;4.00;87.00
84983;DHT22;75295;45.426;9.696;2024-01-15T08:43:41;4.10;86.50
84983;DHT22;75295;45.426;9.696;2024-01-15T08:46:08;4.20;86.30
84983;DHT22;75295;45.426;9.696;2024-01-15T08:48:35;4.00;86.00
84983;DHT22;75295;45.426;9.696;2024-01-15T08:51:02;4.10;86.10
84983;DHT22;75295;45.426;9.696;2024-01-15T08:53:29;4.20;86.00
84983;DHT22;75295;45.426;9.696;2024-01-15T08:55:56;4.30;85.80
84983;DHT22;75295;45.426;9.696;2024-01-15T08:58:23;4.40;85.50
84983;DHT22;75295;45.426;9.696;2024-01-15T09:00:51;4.40;84.80
84983;DHT22;75295;45.426;9.696;2024-01-15T09:03:18;4.40;85.20
84983;DHT22;75295;45.426;9.696;2024-01-15T09:05:45;4.50;85.40
84983;DHT22;75295;45.426;9.696;2024-01-15T09:08:11;4.50;84.70
84983;DHT22;75295;45.426;9.696;2024-01-15T09:10:38;4.60;85.00
84983;DHT22;75295;45.426;9.696;2024-01-15T09:13:06;4.70;84.60
84983;DHT22;75295;45.426;9.696;2024-01-15T09:15:33;4.60;84.20
84983;DHT22;75295;45.426;9.696;2024-01-15T09:18:00;4.60;84.20
84983;DHT22;75295;45.426;9.696;2024-01-15T09:20:29;4.50;84.40
84983;DHT22;75295;45.426;9.696;2024-01-15T09:22:55;4.50;84.40
84983;DHT22;75295;45.426;9.696;2024-01-15T09:25:22;4.50;84.70
84983;DHT22;75295;45.426;9.696;2024-01-15T09:27:49;4.50;84.90
84983;DHT22;75295;45.426;9.696;2024-01-15T09:30:15;4.60;84.70
84983;DHT22;75295;45.426;9.696;2024-01-15T09:32:42;4.70;84.70
84983;DHT22;75295;45.426;9.696;2024-01-15T09:35:09;4.80;84.60
84983;DHT22;75295;45.426;9.696;2024-01-15T09:37:37;4.90;84.00
84983;DHT22;75295;45.426;9.696;2024-01-15T09:40:06;4.90;84.90
84983;DHT22;75295;45.426;9.696;2024-01-15T09:42:35;5.00;83.90
84983;DHT22;75295;45.426;9.696;2024-01-15T09:45:02;4.90;84.10
84983;DHT22;75295;45.426;9.696;2024-01-15T09:47:30;5.00;84.10
84983;DHT22;75295;45.426;9.696;2024-01-15T09:49:57;5.10;83.70
84983;DHT22;75295;45.426;9.696;2024-01-15T09:52:25;5.10;83.30
84983;DHT22;75295;45.426;9.696;2024-01-15T09:54:52;4.90;82.90
84983;DHT22;75295;45.426;9.696;2024-01-15T09:57:19;5.00;83.40
84983;DHT22;75295;45.426;9.696;2024-01-15T09:59:47;5.10;84.00
84983;DHT22;75295;45.426;9.696;2024-01-15T10:02:15;5.20;83.70
84983;DHT22;75295;45.426;9.696;2024-01-15T10:04:45;5.40;83.40
84983;DHT22;75295;45.426;9.696;2024-01-15T10:07:15;5.30;82.30
84983;DHT22;75295;45.426;9.696;2024-01-15T10:09:46;5.40;82.60
84983;DHT22;75295;45.426;9.696;2024-01-15T10:12:13;5.40;82.80
84983;DHT22;75295;45.426;9.696;2024-01-15T10:14:41;5.60;82.70
84983;DHT22;75295;45.426;9.696;2024-01-15T10:17:15;5.60;81.90
84983;DHT22;75295;45.426;9.696;2024-01-15T10:19:45;5.60;82.50
84983;DHT22;75295;45.426;9.696;2024-01-15T10:22:14;5.60;81.90
84983;DHT22;75295;45.426;9.696;2024-01-15T10:24:42;5.70;82.30
84983;DHT22;75295;45.426;9.696;2024-01-15T10:27:10;5.70;82.60
84983;DHT22;75295;45.426;9.696;2024-01-15T10:29:37;5.70;82.80
84983;DHT22;75295;45.426;9.696;2024-01-15T10:32:08;5.70;82.80
84983;DHT22;75295;45.426;9.696;2024-01-15T10:34:39;5.50;83.10
84983;DHT22;75295;45.426;9.696;2024-01-15T10:37:10;5.40;83.80
84983;DHT22;75295;45.426;9.696;2024-01-15T10:39:37;5.40;84.20
84983;DHT22;75295;45.426;9.696;2024-01-15T10:42:04;5.30;84.50
84983;DHT22;75295;45.426;9.696;2024-01-15T10:44:32;5.70;84.50
84983;DHT22;75295;45.426;9.696;2024-01-15T10:46:59;6.00;83.70
84983;DHT22;75295;45.426;9.696;2024-01-15T10:49:26;6.00;83.00
84983;DHT22;75295;45.426;9.696;2024-01-15T10:51:54;6.10;82.50
84983;DHT22;75295;45.426;9.696;2024-01-15T10:54:23;6.00;81.70
84983;DHT22;75295;45.426;9.696;2024-01-15T10:56:50;5.90;81.40
84983;DHT22;75295;45.426;9.696;2024-01-15T10:59:20;6.00;82.10
84983;DHT22;75295;45.426;9.696;2024-01-15T11:01:51;6.10;81.10
84983;DHT22;75295;45.426;9.696;2024-01-15T11:04:20;6.10;81.50
84983;DHT22;75295;45.426;9.696;2024-01-15T11:06:51;6.20;81.50
84983;DHT22;75295;45.426;9.696;2024-01-15T11:09:19;6.40;81.70
84983;DHT22;75295;45.426;9.696;2024-01-15T11:11:48;6.50;81.10
84983;DHT22;75295;45.426;9.696;2024-01-15T11:14:34;6.50;80.50
84983;DHT22;75295;45.426;9.696;2024-01-15T11:17:02;6.50;80.40
84983;DHT22;75295;45.426;9.696;2024-01-15T11:19:58;6.60;80.70
84983;DHT22;75295;45.426;9.696;2024-01-15T11:25:02;6.60;80.60
84983;DHT22;75295;45.426;9.696;2024-01-15T11:30:14;7.00;79.80
84983;DHT22;75295;45.426;9.696;2024-01-15T11:32:41;7.20;79.10
84983;DHT22;75295;45.426;9.696;2024-01-15T11:35:09;7.10;77.50
84983;DHT22;75295;45.426;9.696;2024-01-15T11:40:20;7.60;77.20
84983;DHT22;75295;45.426;9.696;2024-01-15T11:42:48;7.70;77.00
84983;DHT22;75295;45.426;9.696;2024-01-15T11:45:18;7.80;76.90
84983;DHT22;75295;45.426;9.696;2024-01-15T11:53:33;7.80;76.30
84983;DHT22;75295;45.426;9.696;2024-01-15T11:56:06;7.80;76.50
84983;DHT22;75295;45.426;9.696;2024-01-15T11:58:40;7.70;76.30
84983;DHT22;75295;45.426;9.696;2024-01-15T12:01:07;7.70;76.10
84983;DHT22;75295;45.426;9.696;2024-01-15T12:03:34;7.60;76.70
84983;DHT22;75295;45.426;9.696;2024-01-15T12:06:01;7.70;77.10
84983;DHT22;75295;45.426;9.696;2024-01-15T12:08:28;7.80;77.40
84983;DHT22;75295;45.426;9.696;2024-01-15T12:10:54;7.90;77.30
84983;DHT22;75295;45.426;9.696;2024-01-15T12:13:21;8.20;77.00
84983;DHT22;75295;45.426;9.696;2024-01-15T12:15:49;8.30;76.40
84983;DHT22;75295;45.426;9.696;2024-01-15T12:18:17;8.50;76.00
84983;DHT22;75295;45.426;9.696;2024-01-15T12:20:45;8.50;75.30
84983;DHT22;75295;45.426;9.696;2024-01-15T12:23:15;8.50;75.50
84983;DHT22;75295;45.426;9.696;2024-01-15T12:25:43;8.60;75.50
84983;DHT22;75295;45.426;9.696;2024-01-15T12:28:10;8.70;75.20
84983;DHT22;75295;45.426;9.696;2024-01-15T12:30:36;8.60;74.60
84983;DHT22;75295;45.426;9.696;2024-01-15T12:33:04;8.60;74.90
84983;DHT22;75295;45.426;9.696;2024-01-15T12:35:33;8.60;74.80
84983;DHT22;75295;45.426;9.696;2024-01-15T12:38:01;8.70;75.10
84983;DHT22;75295;45.426;9.696;2024-01-15T12:40:32;8.80;74.90
84983;DHT22;75295;45.426;9.696;2024-01-15T12:43:01;8.90;74.80
84983;DHT22;75295;45.426;9.696;2024-01-15T12:45:28;9.00;73.70
84983;DHT22;75295;45.426;9.696;2024-01-15T12:47:56;9.00;73.50
84983;DHT22;75295;45.426;9.696;2024-01-15T12:52:53;9.10;72.40
84983;DHT22;75295;45.426;9.696;2024-01-15T12:55:20;8.80;71.60
84983;DHT22;75295;45.426;9.696;2024-01-15T12:57:46;8.80;72.20
84983;DHT22;75295;45.426;9.696;2024-01-15T13:00:13;9.00;74.20
84983;DHT22;75295;45.426;9.696;2024-01-15T13:02:42;9.10;73.40
84983;DHT22;75295;45.426;9.696;2024-01-15T13:05:09;9.20;72.90
84983;DHT22;75295;45.426;9.696;2024-01-15T13:07:40;9.20;72.70
84983;DHT22;75295;45.426;9.696;2024-01-15T13:10:07;9.20;72.90
84983;DHT22;75295;45.426;9.696;2024-01-15T13:12:35;9.30;72.70
84983;DHT22;75295;45.426;9.696;2024-01-15T13:15:03;9.30;72.10
84983;DHT22;75295;45.426;9.696;2024-01-15T13:17:30;9.50;72.50
84983;DHT22;75295;45.426;9.696;2024-01-15T13:19:57;9.50;71.70
84983;DHT22;75295;45.426;9.696;2024-01-15T13:22:24;9.50;71.00
84983;DHT22;75295;45.426;9.696;2024-01-15T13:24:56;9.50;70.90
84983;DHT22;75295;45.426;9.696;2024-01-15T13:27:23;9.60;70.90
84983;DHT22;75295;45.426;9.696;2024-01-15T13:29:50;9.70;71.20
84983;DHT22;75295;45.426;9.696;2024-01-15T13:32:23;9.70;70.80
84983;DHT22;75295;45.426;9.696;2024-01-15T13:34:57;9.70;70.60
84983;DHT22;75295;45.426;9.696;2024-01-15T13:37:24;9.70;70.60
84983;DHT22;75295;45.426;9.696;2024-01-15T13:39:52;9.90;70.80
84983;DHT22;75295;45.426;9.696;2024-01-15T13:42:20;9.80;70.00
84983;DHT22;75295;45.426;9.696;2024-01-15T13:44:50;10.00;70.50
84983;DHT22;75295;45.426;9.696;2024-01-15T13:47:17;10.10;70.30
84983;DHT22;75295;45.426;9.696;2024-01-15T13:49:44;10.30;70.20
84983;DHT22;75295;45.426;9.696;2024-01-15T13:52:11;10.40;69.50
84983;DHT22;75295;45.426;9.696;2024-01-15T13:54:38;10.40;69.10
84983;DHT22;75295;45.426;9.696;2024-01-15T13:57:05;10.40;69.10
84983;DHT22;75295;45.426;9.696;2024-01-15T13:59:32;10.40;68.70
84983;DHT22;75295;45.426;9.696;2024-01-15T14:01:59;10.40;69.20
84983;DHT22;75295;45.426;9.696;2024-01-15T14:04:26;10.50;69.10
84983;DHT22;75295;45.426;9.696;2024-01-15T14:06:53;10.50;69.70
84983;DHT22;75295;45.426;9.696;2024-01-15T14:09:19;10.50;69.70
84983;DHT22;75295;45.426;9.696;2024-01-15T14:11:48;10.50;70.20
84983;DHT22;75295;45.426;9.696;2024-01-15T14:14:15;10.40;68.30
84983;DHT22;75295;45.426;9.696;2024-01-15T14:16:43;10.50;68.90
84983;DHT22;75295;45.426;9.696;2024-01-15T14:19:10;10.50;68.50
84983;DHT22;75295;45.426;9.696;2024-01-15T14:21:36;10.50;68.50
84983;DHT22;75295;45.426;9.696;2024-01-15T14:24:03;10.60;68.80
84983;DHT22;75295;45.426;9.696;2024-01-15T14:26:30;10.60;68.50
84983;DHT22;75295;45.426;9.696;2024-01-15T14:28:58;10.60;68.30
84983;DHT22;75295;45.426;9.696;2024-01-15T14:31:25;10.60;68.00
84983;DHT22;75295;45.426;9.696;2024-01-15T14:33:52;10.60;68.10
84983;DHT22;75295;45.426;9.696;2024-01-15T14:36:19;10.60;68.40
84983;DHT22;75295;45.426;9.696;2024-01-15T14:38:46;10.60;67.20
84983;DHT22;75295;45.426;9.696;2024-01-15T14:41:13;10.50;67.70
84983;DHT22;75295;45.426;9.696;2024-01-15T14:43:40;10.50;68.20
84983;DHT22;75295;45.426;9.696;2024-01-15T14:46:06;10.50;68.00
84983;DHT22;75295;45.426;9.696;2024-01-15T14:48:33;10.60;68.10
84983;DHT22;75295;45.426;9.696;2024-01-15T14:51:00;10.60;68.00
84983;DHT22;75295;45.426;9.696;2024-01-15T14:53:29;10.50;67.90
84983;DHT22;75295;45.426;9.696;2024-01-15T14:55:56;10.50;67.90
84983;DHT22;75295;45.426;9.696;2024-01-15T14:58:22;10.50;68.10
84983;DHT22;75295;45.426;9.696;2024-01-15T15:00:49;10.50;68.20
84983;DHT22;75295;45.426;9.696;2024-01-15T15:03:16;10.50;68.40
84983;DHT22;75295;45.426;9.696;2024-01-15T15:05:44;10.50;68.50
84983;DHT22;75295;45.426;9.696;2024-01-15T15:08:11;10.40;68.40
84983;DHT22;75295;45.426;9.696;2024-01-15T15:10:38;10.40;68.60
84983;DHT22;75295;45.426;9.696;2024-01-15T15:13:07;10.40;68.70
84983;DHT22;75295;45.426;9.696;2024-01-15T15:15:35;10.30;68.80
84983;DHT22;75295;45.426;9.696;2024-01-15T15:18:02;10.30;69.00
84983;DHT22;75295;45.426;9.696;2024-01-15T15:20:29;10.30;69.20
84983;DHT22;75295;45.426;9.696;2024-01-15T15:22:56;10.20;69.10
84983;DHT22;75295;45.426;9.696;2024-01-15T15:25:23;10.10;69.40
84983;DHT22;75295;45.426;9.696;2024-01-15T15:27:49;10.10;69.50
84983;DHT22;75295;45.426;9.696;2024-01-15T15:30:16;10.10;69.50
84983;DHT22;75295;45.426;9.696;2024-01-15T15:32:43;10.10;69.50
84983;DHT22;75295;45.426;9.696;2024-01-15T15:35:09;10.00;69.50
84983;DHT22;75295;45.426;9.696;2024-01-15T15:37:36;10.00;69.60
84983;DHT22;75295;45.426;9.696;2024-01-15T15:40:04;9.90;69.60
84983;DHT22;75295;45.426;9.696;2024-01-15T15:42:35;9.90;69.60
84983;DHT22;75295;45.426;9.696;2024-01-15T15:45:02;9.90;69.60
84983;DHT22;75295;45.426;9.696;2024-01-15T15:47:29;9.80;69.60
84983;DHT22;75295;45.426;9.696;2024-01-15T15:49:56;9.70;69.70
84983;DHT22;75295;45.426;9.696;2024-01-15T15:52:23;9.60;69.90
84983;DHT22;75295;45.426;9.696;2024-01-15T15:54:51;9.60;70.00
84983;DHT22;75295;45.426;9.696;2024-01-15T15:57:19;9.50;70.20
84983;DHT22;75295;45.426;9.696;2024-01-15T15:59:46;9.40;70.30
84983;DHT22;75295;45.426;9.696;2024-01-15T16:02:13;9.40;70.50